createdAt,value
2023-04-16T00:01:04.774Z,23.13
2023-04-16T00:03:40.237Z,23.09
2023-04-16T00:06:20.130Z,23.10
2023-04-16T00:08:53.038Z,23.09
2023-04-16T00:11:26.414Z,23.07
2023-04-16T00:14:07.566Z,23.07
2023-04-16T00:16:46.137Z,23.06
2023-04-16T00:19:22.158Z,23.04
2023-04-16T00:21:58.132Z,23.06
2023-04-16T00:24:34.624Z,23.05
2023-04-16T00:27:27.460Z,23.04
2023-04-16T00:30:00.646Z,23.02
2023-04-16T00:32:32.994Z,23.02
2023-04-16T00:35:12.015Z,23.01
2023-04-16T00:37:53.269Z,22.99
2023-04-16T00:40:23.887Z,23.00
2023-04-16T00:42:57.468Z,23.02
2023-04-16T00:45:32.609Z,22.99
2023-04-16T00:48:12.526Z,22.98
2023-04-16T00:50:51.346Z,22.99
2023-04-16T00:53:32.369Z,22.99
2023-04-16T00:56:07.569Z,22.98
2023-04-16T00:58:43.656Z,23.00
2023-04-16T01:01:19.453Z,22.98
2023-04-16T01:03:55.319Z,23.01
2023-04-16T01:06:36.311Z,22.97
2023-04-16T01:09:10.439Z,22.99
2023-04-16T01:11:46.263Z,23.00
2023-04-16T01:14:22.520Z,23.02
2023-04-16T01:17:06.018Z,23.04
2023-04-16T01:19:44.361Z,23.07
2023-04-16T01:22:23.006Z,23.10
2023-04-16T01:24:59.522Z,23.12
2023-04-16T01:27:37.553Z,23.15
2023-04-16T01:30:18.492Z,23.22
2023-04-16T01:33:07.459Z,23.22
2023-04-16T01:35:43.892Z,23.27
2023-04-16T01:38:19.628Z,23.23
2023-04-16T01:40:59.718Z,23.25
2023-04-16T01:43:34.127Z,23.30
2023-04-16T01:46:29.855Z,23.30
2023-04-16T01:49:03.161Z,23.28
2023-04-16T01:51:38.527Z,23.32
2023-04-16T01:54:11.511Z,23.31
2023-04-16T01:56:49.669Z,23.32
2023-04-16T01:59:22.853Z,23.34
2023-04-16T02:01:56.307Z,23.39
2023-04-16T02:04:35.208Z,23.33
2023-04-16T02:07:08.974Z,23.32
2023-04-16T02:09:42.663Z,23.27
2023-04-16T02:12:16.533Z,23.25
2023-04-16T02:14:54.889Z,23.24
2023-04-16T02:17:36.094Z,23.19
2023-04-16T02:20:27.618Z,23.13
2023-04-16T02:23:04.894Z,23.12
2023-04-16T02:25:59.105Z,23.05
2023-04-16T02:28:34.923Z,23.01
2023-04-16T02:31:11.874Z,22.97
2023-04-16T02:33:49.562Z,22.96
2023-04-16T02:36:25.678Z,22.95
2023-04-16T02:39:02.155Z,22.92
2023-04-16T02:41:38.639Z,22.92
2023-04-16T02:44:11.468Z,22.89
2023-04-16T02:46:48.760Z,22.90
2023-04-16T02:49:24.926Z,22.88
2023-04-16T02:52:04.716Z,22.87
2023-04-16T02:54:40.367Z,22.87
2023-04-16T02:57:18.522Z,22.82
2023-04-16T02:59:56.654Z,22.82
2023-04-16T03:02:29.687Z,22.83
2023-04-16T03:05:09.072Z,22.80
2023-04-16T03:07:51.631Z,22.80
2023-04-16T03:10:27.531Z,22.79
2023-04-16T03:13:01.126Z,22.77
2023-04-16T03:15:29.702Z,22.76
2023-04-16T03:18:08.816Z,22.76
2023-04-16T03:20:45.534Z,22.73
2023-04-16T03:23:24.723Z,22.75
2023-04-16T03:26:01.322Z,22.75
2023-04-16T03:28:38.449Z,22.72
2023-04-16T03:31:17.900Z,22.75
2023-04-16T03:34:02.920Z,22.73
2023-04-16T03:36:36.842Z,22.74
2023-04-16T03:39:13.769Z,22.73
2023-04-16T03:41:52.993Z,22.70
2023-04-16T03:44:32.559Z,22.69
2023-04-16T03:47:11.893Z,22.74
2023-04-16T03:49:51.052Z,22.72
2023-04-16T03:52:28.239Z,22.74
2023-04-16T03:55:04.426Z,22.72
2023-04-16T03:57:38.513Z,22.68
2023-04-16T04:00:22.161Z,22.70
2023-04-16T04:03:09.231Z,22.68
2023-04-16T04:05:45.351Z,22.68
2023-04-16T04:08:31.750Z,22.68
2023-04-16T04:11:04.793Z,22.67
2023-04-16T04:13:41.850Z,22.64
2023-04-16T04:16:21.382Z,22.66
2023-04-16T04:19:00.104Z,22.64
2023-04-16T04:21:33.859Z,22.65
2023-04-16T04:24:07.652Z,22.65
2023-04-16T04:26:44.595Z,22.66
2023-04-16T04:29:21.669Z,22.68
2023-04-16T04:32:03.180Z,22.65
2023-04-16T04:34:41.886Z,22.65
2023-04-16T04:37:15.136Z,22.65
2023-04-16T04:39:51.825Z,22.66
2023-04-16T04:42:25.174Z,22.67
2023-04-16T04:45:03.066Z,22.65
2023-04-16T04:47:44.134Z,22.62
2023-04-16T04:50:21.893Z,22.60
2023-04-16T04:53:07.229Z,22.63
2023-04-16T04:55:46.152Z,22.63
2023-04-16T04:58:21.850Z,22.60
2023-04-16T05:00:52.989Z,22.65
2023-04-16T05:03:28.748Z,22.66
2023-04-16T05:06:06.856Z,22.68
2023-04-16T05:08:48.502Z,22.74
2023-04-16T05:11:25.191Z,22.75
2023-04-16T05:14:04.077Z,22.75
2023-04-16T05:16:45.111Z,22.77
2023-04-16T05:19:21.771Z,22.73
2023-04-16T05:21:55.121Z,22.79
2023-04-16T05:24:32.397Z,22.81
2023-04-16T05:27:11.848Z,22.82
2023-04-16T05:29:42.239Z,22.85
2023-04-16T05:32:27.605Z,22.89
2023-04-16T05:35:03.309Z,22.99
2023-04-16T05:37:38.730Z,22.98
2023-04-16T05:40:13.535Z,23.02
2023-04-16T05:42:51.912Z,22.99
2023-04-16T05:45:28.566Z,22.96
2023-04-16T05:48:05.837Z,23.03
2023-04-16T05:50:43.658Z,23.07
2023-04-16T05:53:19.476Z,23.12
2023-04-16T05:55:52.061Z,23.11
2023-04-16T05:58:33.396Z,23.18
2023-04-16T06:01:07.558Z,23.16
2023-04-16T06:03:43.941Z,23.20
2023-04-16T06:06:20.041Z,23.28
2023-04-16T06:08:58.506Z,23.25
2023-04-16T06:11:36.338Z,23.27
2023-04-16T06:14:14.356Z,23.28
2023-04-16T06:16:47.230Z,23.26
2023-04-16T06:19:20.277Z,23.31
2023-04-16T06:22:06.538Z,23.24
2023-04-16T06:24:42.447Z,23.25
2023-04-16T06:27:20.963Z,23.26
2023-04-16T06:29:57.298Z,23.27
2023-04-16T06:32:36.058Z,23.26
2023-04-16T06:35:11.884Z,23.25
2023-04-16T06:37:50.898Z,23.29
2023-04-16T06:40:23.801Z,23.31
2023-04-16T06:42:58.918Z,23.34
2023-04-16T06:45:36.445Z,23.35
2023-04-16T06:48:20.801Z,23.35
2023-04-16T06:50:57.128Z,23.39
2023-04-16T06:53:39.708Z,23.40
2023-04-16T06:56:14.599Z,23.36
2023-04-16T06:58:51.344Z,23.41
2023-04-16T07:01:28.196Z,23.45
2023-04-16T07:04:06.982Z,23.45
2023-04-16T07:06:43.041Z,23.48
2023-04-16T07:09:12.870Z,23.51
2023-04-16T07:11:46.746Z,23.58
2023-04-16T07:14:20.613Z,23.58
2023-04-16T07:17:02.306Z,23.57
2023-04-16T07:19:37.320Z,23.60
2023-04-16T07:22:11.099Z,23.59
2023-04-16T07:24:46.961Z,23.60
2023-04-16T07:27:22.538Z,23.66
2023-04-16T07:29:55.801Z,23.63
2023-04-16T07:32:33.742Z,23.68
2023-04-16T07:35:12.514Z,23.69
2023-04-16T07:37:45.177Z,23.61
2023-04-16T07:40:24.072Z,23.62
2023-04-16T07:42:59.900Z,23.71
2023-04-16T07:45:39.299Z,23.69
2023-04-16T07:48:15.900Z,23.70
2023-04-16T07:50:53.068Z,23.71
2023-04-16T07:53:29.062Z,23.72
2023-04-16T07:56:02.761Z,23.81
2023-04-16T07:58:36.069Z,23.74
2023-04-16T08:01:11.580Z,23.74
2023-04-16T08:03:40.518Z,23.78
2023-04-16T08:06:16.491Z,23.80
2023-04-16T08:08:52.915Z,23.87
2023-04-16T08:11:25.986Z,23.95
2023-04-16T08:14:04.215Z,24.04
2023-04-16T08:16:39.086Z,24.04
2023-04-16T08:19:15.223Z,24.09
2023-04-16T08:21:48.763Z,24.13
2023-04-16T08:24:25.496Z,24.18
2023-04-16T08:26:53.834Z,24.22
2023-04-16T08:29:26.750Z,24.23
2023-04-16T08:32:02.905Z,24.39
2023-04-16T08:34:37.463Z,24.36
2023-04-16T08:37:08.140Z,24.32
2023-04-16T08:39:43.851Z,24.35
2023-04-16T08:42:37.066Z,24.41
2023-04-16T08:45:16.107Z,24.46
2023-04-16T08:47:51.801Z,24.49
2023-04-16T08:50:26.970Z,24.43
2023-04-16T08:53:21.620Z,24.34
2023-04-16T08:55:53.726Z,24.32
2023-04-16T08:58:34.719Z,24.34
2023-04-16T09:01:16.416Z,24.35
2023-04-16T09:03:56.325Z,24.23
2023-04-16T09:06:29.337Z,24.26
2023-04-16T09:09:08.361Z,24.17
2023-04-16T09:11:50.919Z,24.17
2023-04-16T09:14:26.935Z,24.19
2023-04-16T09:17:02.438Z,24.16
2023-04-16T09:19:41.043Z,24.13
2023-04-16T09:22:18.130Z,24.20
2023-04-16T09:24:52.098Z,24.19
2023-04-16T09:27:27.252Z,24.32
2023-04-16T09:30:26.161Z,24.18
2023-04-16T09:33:16.601Z,24.16
2023-04-16T09:35:55.747Z,24.17
2023-04-16T09:38:49.320Z,24.25
2023-04-16T09:41:25.345Z,24.28
2023-04-16T09:44:09.579Z,24.20
2023-04-16T09:46:49.216Z,24.23
2023-04-16T09:49:22.626Z,24.26
2023-04-16T09:51:58.233Z,24.27
2023-04-16T09:54:36.560Z,24.34
2023-04-16T09:57:13.117Z,24.30
2023-04-16T09:59:55.234Z,24.33
2023-04-16T10:02:39.093Z,24.43
2023-04-16T10:05:21.534Z,24.41
2023-04-16T10:08:01.385Z,24.50
2023-04-16T10:10:42.170Z,24.47
2023-04-16T10:13:22.226Z,24.41
2023-04-16T10:15:58.969Z,24.43
2023-04-16T10:18:32.668Z,24.38
2023-04-16T10:21:11.800Z,24.44
2023-04-16T10:23:56.157Z,24.43
2023-04-16T10:26:35.139Z,24.38
2023-04-16T10:29:12.932Z,24.39
2023-04-16T10:31:49.174Z,24.39
2023-04-16T10:34:25.883Z,24.41
2023-04-16T10:37:01.753Z,24.41
2023-04-16T10:39:39.459Z,24.51
2023-04-16T10:42:19.221Z,24.51
2023-04-16T10:44:54.641Z,24.50
2023-04-16T10:47:29.333Z,24.46
2023-04-16T10:50:02.163Z,24.49
2023-04-16T10:52:35.505Z,24.38
2023-04-16T10:55:20.319Z,24.52
2023-04-16T10:57:53.999Z,24.52
2023-04-16T11:00:29.523Z,24.53
2023-04-16T11:03:07.565Z,24.55
2023-04-16T11:05:51.515Z,24.57
2023-04-16T11:08:30.247Z,24.52
2023-04-16T11:11:04.481Z,24.67
2023-04-16T11:13:43.754Z,24.63
2023-04-16T11:16:25.032Z,24.53
2023-04-16T11:19:00.077Z,24.64
2023-04-16T11:21:35.528Z,24.65
2023-04-16T11:24:15.380Z,24.68
2023-04-16T11:26:51.946Z,24.67
2023-04-16T11:29:27.481Z,24.66
2023-04-16T11:31:58.380Z,24.64
2023-04-16T11:34:37.113Z,24.69
2023-04-16T11:37:10.778Z,24.65
2023-04-16T11:39:49.393Z,24.70
2023-04-16T11:42:23.242Z,24.67
2023-04-16T11:45:05.363Z,24.66
2023-04-16T11:47:53.137Z,24.68
2023-04-16T11:50:41.724Z,24.65
2023-04-16T11:53:17.584Z,24.66
2023-04-16T11:55:53.965Z,24.65
2023-04-16T11:58:26.954Z,24.64
2023-04-16T12:01:03.407Z,24.68
2023-04-16T12:03:49.740Z,24.67
2023-04-16T12:06:24.332Z,24.71
2023-04-16T12:08:55.725Z,24.75
2023-04-16T12:11:43.646Z,24.76
2023-04-16T12:14:16.488Z,24.78
2023-04-16T12:16:50.581Z,24.72
2023-04-16T12:19:19.216Z,24.65
2023-04-16T12:21:58.215Z,24.71
2023-04-16T12:24:37.385Z,24.72
2023-04-16T12:27:14.588Z,24.70
2023-04-16T12:30:02.483Z,24.67
2023-04-16T12:32:35.656Z,24.70
2023-04-16T12:35:10.137Z,24.67
2023-04-16T12:37:52.388Z,24.66
2023-04-16T12:40:25.500Z,24.67
2023-04-16T12:43:00.543Z,24.63
2023-04-16T12:45:38.723Z,24.66
2023-04-16T12:48:17.651Z,24.64
2023-04-16T12:50:56.615Z,24.58
2023-04-16T12:53:32.247Z,24.60
2023-04-16T12:56:09.384Z,24.63
2023-04-16T12:58:45.077Z,24.61
2023-04-16T13:01:24.803Z,24.65
2023-04-16T13:04:06.209Z,24.66
2023-04-16T13:06:45.016Z,24.69
2023-04-16T13:09:26.550Z,24.67
2023-04-16T13:11:59.567Z,24.61
2023-04-16T13:14:33.473Z,24.66
2023-04-16T13:17:09.779Z,24.67
2023-04-16T13:19:54.248Z,24.71
2023-04-16T13:22:29.049Z,24.76
2023-04-16T13:25:12.152Z,24.75
2023-04-16T13:27:48.494Z,24.79
2023-04-16T13:30:26.062Z,24.79
2023-04-16T13:33:07.250Z,24.76
2023-04-16T13:35:43.825Z,24.78
2023-04-16T13:38:20.217Z,24.79
2023-04-16T13:40:48.638Z,24.79
2023-04-16T13:43:29.508Z,24.78
2023-04-16T13:46:03.658Z,24.75
2023-04-16T13:48:41.340Z,24.80
2023-04-16T13:51:31.568Z,24.83
2023-04-16T13:54:05.079Z,24.80
2023-04-16T13:56:35.789Z,24.83
2023-04-16T13:59:11.846Z,24.74
2023-04-16T14:01:54.609Z,24.76
2023-04-16T14:04:33.572Z,24.82
2023-04-16T14:07:30.825Z,24.79
2023-04-16T14:10:16.570Z,24.74
2023-04-16T14:12:52.330Z,24.78
2023-04-16T14:15:30.248Z,24.78
2023-04-16T14:18:06.728Z,24.78
2023-04-16T14:20:40.531Z,24.85
2023-04-16T14:23:14.273Z,24.80
2023-04-16T14:25:41.988Z,24.75
2023-04-16T14:28:15.088Z,24.78
2023-04-16T14:30:52.596Z,24.77
2023-04-16T14:33:30.388Z,24.78
2023-04-16T14:36:05.589Z,24.76
2023-04-16T14:38:37.148Z,24.70
2023-04-16T14:41:05.818Z,24.73
2023-04-16T14:43:33.558Z,24.70
2023-04-16T14:46:06.581Z,24.73
2023-04-16T14:48:35.445Z,24.70
2023-04-16T14:51:08.652Z,24.70
2023-04-16T14:53:39.799Z,24.71
2023-04-16T14:56:07.926Z,24.72
2023-04-16T14:58:43.004Z,24.68
2023-04-16T15:01:16.754Z,24.68
2023-04-16T15:03:44.563Z,24.67
2023-04-16T15:06:13.822Z,24.67
2023-04-16T15:08:41.686Z,24.67
2023-04-16T15:11:12.087Z,24.68
2023-04-16T15:13:44.724Z,24.67
2023-04-16T15:16:14.917Z,24.68
2023-04-16T15:18:47.571Z,24.68
2023-04-16T15:21:20.878Z,24.66
2023-04-16T15:23:53.981Z,24.66
2023-04-16T15:26:24.185Z,24.65
2023-04-16T15:28:53.737Z,24.66
2023-04-16T15:31:24.328Z,24.62
2023-04-16T15:34:01.236Z,24.68
2023-04-16T15:36:28.886Z,24.68
2023-04-16T15:38:59.083Z,24.64
2023-04-16T15:41:31.947Z,24.68
2023-04-16T15:43:59.493Z,24.65
2023-04-16T15:46:28.695Z,24.61
2023-04-16T15:48:56.322Z,24.62
2023-04-16T15:51:32.313Z,24.60
2023-04-16T15:54:01.549Z,24.61
2023-04-16T15:56:32.406Z,24.65
2023-04-16T15:59:00.366Z,24.64
2023-04-16T16:01:31.236Z,24.68
2023-04-16T16:04:12.719Z,24.57
2023-04-16T16:06:41.877Z,24.65
2023-04-16T16:09:12.875Z,24.58
2023-04-16T16:11:42.967Z,24.54
2023-04-16T16:14:18.518Z,24.55
2023-04-16T16:16:49.820Z,24.53
2023-04-16T16:19:22.958Z,24.51
2023-04-16T16:21:53.365Z,24.53
2023-04-16T16:24:24.722Z,24.48
2023-04-16T16:26:56.573Z,24.47
2023-04-16T16:29:25.728Z,24.49
2023-04-16T16:31:56.432Z,24.46
2023-04-16T16:34:27.047Z,24.51
2023-04-16T16:37:02.019Z,24.48
2023-04-16T16:39:30.692Z,24.44
2023-04-16T16:41:59.076Z,24.43
2023-04-16T16:44:29.798Z,24.48
2023-04-16T16:46:57.553Z,24.47
2023-04-16T16:49:32.631Z,24.52
2023-04-16T16:52:06.783Z,24.49
2023-04-16T16:54:34.521Z,24.49
2023-04-16T16:57:10.759Z,24.50
2023-04-16T16:59:38.529Z,24.48
2023-04-16T17:02:10.547Z,24.52
2023-04-16T17:04:41.440Z,24.52
2023-04-16T17:07:11.993Z,24.51
2023-04-16T17:09:42.342Z,24.50
2023-04-16T17:12:10.175Z,24.52
2023-04-16T17:14:41.217Z,24.49
2023-04-16T17:17:11.922Z,24.43
2023-04-16T17:19:50.506Z,24.42
2023-04-16T17:22:18.351Z,24.44
2023-04-16T17:24:46.603Z,24.42
2023-04-16T17:27:17.781Z,24.37
2023-04-16T17:29:45.090Z,24.34
2023-04-16T17:32:12.837Z,24.35
2023-04-16T17:34:44.684Z,24.32
2023-04-16T17:37:15.810Z,24.31
2023-04-16T17:39:46.433Z,24.27
2023-04-16T17:42:22.954Z,24.31
2023-04-16T17:44:50.963Z,24.34
2023-04-16T17:47:19.828Z,24.32
2023-04-16T17:49:50.549Z,24.31
2023-04-16T17:52:18.224Z,24.31
2023-04-16T17:55:01.477Z,24.34
2023-04-16T17:57:32.567Z,24.31
2023-04-16T18:00:06.570Z,24.29
2023-04-16T18:02:42.122Z,24.32
2023-04-16T18:05:12.897Z,24.27
2023-04-16T18:07:48.312Z,24.26
2023-04-16T18:10:19.005Z,24.27
2023-04-16T18:12:48.202Z,24.21
2023-04-16T18:15:21.781Z,24.15
2023-04-16T18:17:50.046Z,24.13
2023-04-16T18:20:19.620Z,24.08
2023-04-16T18:22:52.836Z,24.05
2023-04-16T18:25:33.705Z,23.98
2023-04-16T18:28:07.933Z,24.02
2023-04-16T18:30:41.014Z,24.02
2023-04-16T18:33:42.741Z,24.06
2023-04-16T18:36:02.657Z,24.02
2023-04-16T18:38:31.484Z,23.97
2023-04-16T18:41:02.293Z,23.98
2023-04-16T18:43:31.267Z,23.99
2023-04-16T18:46:06.772Z,23.99
2023-04-16T18:48:41.019Z,23.98
2023-04-16T18:51:16.347Z,23.96
2023-04-16T18:53:50.212Z,23.95
2023-04-16T18:56:18.527Z,23.96
2023-04-16T18:58:49.606Z,23.94
2023-04-16T19:01:20.611Z,23.93
2023-04-16T19:03:53.308Z,23.97
2023-04-16T19:06:30.104Z,23.96
2023-04-16T19:09:01.694Z,23.95
2023-04-16T19:11:35.399Z,23.94
2023-04-16T19:14:08.461Z,23.90
2023-04-16T19:16:39.161Z,23.91
2023-04-16T19:19:06.985Z,23.90
2023-04-16T19:21:37.816Z,23.88
2023-04-16T19:24:06.077Z,23.87
2023-04-16T19:26:36.859Z,23.88
2023-04-16T19:29:07.725Z,23.87
2023-04-16T19:31:35.712Z,23.88
2023-04-16T19:34:08.806Z,23.85
2023-04-16T19:36:41.619Z,23.85
2023-04-16T19:39:12.447Z,23.86
2023-04-16T19:41:43.062Z,23.82
2023-04-16T19:44:11.079Z,23.81
2023-04-16T19:46:38.754Z,23.78
2023-04-16T19:49:12.204Z,23.78
2023-04-16T19:51:43.928Z,23.78
2023-04-16T19:54:14.737Z,23.81
2023-04-16T19:56:49.404Z,23.83
2023-04-16T19:59:23.138Z,23.79
2023-04-16T20:01:53.561Z,23.78
2023-04-16T20:04:27.885Z,23.77
2023-04-16T20:06:55.887Z,23.77
2023-04-16T20:09:27.522Z,23.75
2023-04-16T20:12:06.067Z,23.72
2023-04-16T20:14:36.504Z,23.72
2023-04-16T20:17:10.518Z,23.75
2023-04-16T20:19:41.298Z,23.74
2023-04-16T20:22:12.030Z,23.72
2023-04-16T20:24:41.651Z,23.71
2023-04-16T20:27:12.294Z,23.70
2023-04-16T20:29:45.105Z,23.70
2023-04-16T20:32:18.928Z,23.72
2023-04-16T20:34:49.862Z,23.71
2023-04-16T20:37:23.178Z,23.69
2023-04-16T20:39:57.491Z,23.72
2023-04-16T20:42:32.145Z,23.69
2023-04-16T20:45:02.279Z,23.69
2023-04-16T20:47:29.997Z,23.69
2023-04-16T20:50:01.819Z,23.70
2023-04-16T20:52:29.437Z,23.68
2023-04-16T20:55:00.164Z,23.67
2023-04-16T20:57:32.093Z,23.68
2023-04-16T21:00:06.552Z,23.70
2023-04-16T21:02:40.060Z,23.66
2023-04-16T21:05:10.575Z,23.67
2023-04-16T21:07:40.769Z,23.62
2023-04-16T21:10:10.292Z,23.63
2023-04-16T21:12:40.758Z,23.62
2023-04-16T21:15:09.231Z,23.62
2023-04-16T21:17:36.898Z,23.62
2023-04-16T21:20:07.124Z,23.61
2023-04-16T21:22:40.673Z,23.61
2023-04-16T21:25:17.051Z,23.63
2023-04-16T21:27:52.577Z,23.60
2023-04-16T21:30:25.379Z,23.60
2023-04-16T21:32:59.206Z,23.59
2023-04-16T21:35:37.084Z,23.58
2023-04-16T21:38:04.827Z,23.57
2023-04-16T21:40:35.320Z,23.57
2023-04-16T21:43:11.413Z,23.56
2023-04-16T21:45:39.872Z,23.53
2023-04-16T21:48:09.927Z,23.52
2023-04-16T21:50:37.968Z,23.52
2023-04-16T21:53:08.931Z,23.49
2023-04-16T21:55:37.300Z,23.53
2023-04-16T21:58:07.625Z,23.52
2023-04-16T22:00:35.401Z,23.55
2023-04-16T22:03:04.497Z,23.56
2023-04-16T22:05:35.248Z,23.53
2023-04-16T22:08:23.474Z,23.53
2023-04-16T22:10:59.552Z,23.52
2023-04-16T22:13:32.469Z,23.51
2023-04-16T22:16:01.428Z,23.48
2023-04-16T22:18:35.388Z,23.46
2023-04-16T22:21:03.794Z,23.49
2023-04-16T22:23:35.227Z,23.45
2023-04-16T22:26:04.133Z,23.46
2023-04-16T22:28:35.021Z,23.45
2023-04-16T22:31:05.696Z,23.42
2023-04-16T22:33:39.199Z,23.43
2023-04-16T22:36:12.322Z,23.42
2023-04-16T22:38:42.201Z,23.41
2023-04-16T22:41:15.919Z,23.41
2023-04-16T22:43:47.337Z,23.40
2023-04-16T22:46:15.213Z,23.42
2023-04-16T22:48:46.334Z,23.44
2023-04-16T22:51:24.174Z,23.43
2023-04-16T22:53:55.012Z,23.40
2023-04-16T22:56:28.932Z,23.44
2023-04-16T22:58:57.170Z,23.40
2023-04-16T23:01:28.172Z,23.41
2023-04-16T23:03:56.248Z,23.39
2023-04-16T23:06:27.530Z,23.42
2023-04-16T23:08:56.230Z,23.41
2023-04-16T23:11:26.789Z,23.37
2023-04-16T23:14:00.123Z,23.36
2023-04-16T23:16:30.813Z,23.37
2023-04-16T23:18:58.460Z,23.35
2023-04-16T23:21:32.548Z,23.35
2023-04-16T23:24:00.250Z,23.33
2023-04-16T23:26:29.035Z,23.33
2023-04-16T23:28:57.505Z,23.33
2023-04-16T23:31:28.232Z,23.32
2023-04-16T23:33:55.954Z,23.30
2023-04-16T23:36:27.161Z,23.30
2023-04-16T23:38:55.408Z,23.28
2023-04-16T23:41:28.369Z,23.29
2023-04-16T23:44:01.419Z,23.29
2023-04-16T23:46:35.379Z,23.31
2023-04-16T23:49:03.195Z,23.28
2023-04-16T23:51:33.527Z,23.26
2023-04-16T23:54:04.319Z,23.27
2023-04-16T23:56:37.674Z,23.27
2023-04-16T23:59:05.639Z,23.26
